Portada
METAR-TAF:

METAR-TAF

Aeropuertos :

Salerno, Italia

latitud: 40-37N, longitud: 014-55E, altitud: 40 m

Observación

El informe se hizo hace 58 minutos, a las 08:50 UTC
Viento 13 kt del norte-noreste, variando entre norte y noreste
Temperatura 13°C
Humedad 33%
Presión 1020 hPa
Visibilidad 10 km o más
sin nubes por debajo de 1500 m y sin presencia de cumulonimbus.

METAR: LIRI 280850Z 02013KT 350V050 CAVOK 13/M03 Q1020

Hora: 11:48 (09:48 UTC)


TAF: falta

Observaciones y pronósticos meteorológicos de más de 4000 aeropuertos (mensajes METAR y TAF).

Los puntos amarillos y rojos representan las estaciones disponibles.

Ponga el ratón en el punto deseado para ver el nombre de la estación.

Haga clic para ver las observaciones y los pronósticos meteorológicos.

Para cambiar el mapa : haga clic en los botones verdes con una cruz de color negro para hacer un zoom, en el botón verde con un guión para alejar o en las flechas verdes para mapas adyacentes.


METAR-TAF: